createdAt,value
2023-01-29T00:00:12.574Z,12.70
2023-01-29T00:02:42.687Z,12.85
2023-01-29T00:05:25.997Z,15.57
2023-01-29T00:07:54.530Z,10.67
2023-01-29T00:10:22.858Z,12.52
2023-01-29T00:12:51.886Z,13.75
2023-01-29T00:15:18.644Z,12.57
2023-01-29T00:17:45.844Z,14.77
2023-01-29T00:20:12.534Z,14.20
2023-01-29T00:22:38.906Z,12.70
2023-01-29T00:25:05.807Z,14.55
2023-01-29T00:27:41.581Z,12.30
2023-01-29T00:30:26.472Z,13.23
2023-01-29T00:32:56.845Z,13.87
2023-01-29T00:35:26.085Z,11.85
2023-01-29T00:37:52.478Z,15.20
2023-01-29T00:40:28.522Z,14.65
2023-01-29T00:43:13.669Z,14.35
2023-01-29T00:45:43.518Z,13.60
2023-01-29T00:48:13.347Z,16.95
2023-01-29T00:50:39.682Z,11.90
2023-01-29T00:53:11.011Z,14.75
2023-01-29T00:55:37.401Z,13.63
2023-01-29T00:58:03.858Z,15.17
2023-01-29T01:00:30.658Z,11.98
2023-01-29T01:03:06.521Z,14.07
2023-01-29T01:05:38.455Z,14.88
2023-01-29T01:08:25.171Z,16.83
2023-01-29T01:11:01.590Z,13.70
2023-01-29T01:13:28.224Z,16.00
2023-01-29T01:15:54.692Z,14.45
2023-01-29T01:18:30.455Z,17.02
2023-01-29T01:20:58.164Z,16.23
2023-01-29T01:23:33.799Z,14.03
2023-01-29T01:26:00.930Z,12.63
2023-01-29T01:28:30.876Z,14.77
2023-01-29T01:30:57.332Z,11.73
2023-01-29T01:33:24.274Z,12.57
2023-01-29T01:35:55.783Z,12.47
2023-01-29T01:38:22.190Z,14.18
2023-01-29T01:40:48.587Z,19.70
2023-01-29T01:43:15.268Z,11.52
2023-01-29T01:45:49.056Z,14.90
2023-01-29T01:48:28.200Z,13.07
2023-01-29T01:51:10.235Z,13.57
2023-01-29T01:53:44.770Z,14.23
2023-01-29T01:56:16.222Z,12.95
2023-01-29T01:58:56.385Z,14.82
2023-01-29T02:01:30.042Z,13.53
2023-01-29T02:04:26.177Z,13.80
2023-01-29T02:07:19.896Z,13.70
2023-01-29T02:10:00.648Z,12.73
2023-01-29T02:12:35.418Z,12.05
2023-01-29T02:15:02.263Z,14.83
2023-01-29T02:17:28.788Z,14.02
2023-01-29T02:20:19.727Z,15.27
2023-01-29T02:23:02.634Z,12.35
2023-01-29T02:25:39.383Z,14.52
2023-01-29T02:28:32.964Z,15.40
2023-01-29T02:31:53.603Z,12.88
2023-01-29T02:35:04.118Z,12.45
2023-01-29T02:37:39.191Z,10.73
2023-01-29T02:40:15.915Z,12.00
2023-01-29T02:43:03.329Z,14.90
2023-01-29T02:45:43.469Z,11.80
2023-01-29T02:48:16.023Z,11.20
2023-01-29T02:51:02.116Z,14.82
2023-01-29T02:53:56.990Z,11.85
2023-01-29T02:56:38.933Z,12.50
2023-01-29T02:59:18.436Z,16.63
2023-01-29T03:02:08.310Z,12.32
2023-01-29T03:04:45.089Z,15.25
2023-01-29T03:07:22.891Z,14.18
2023-01-29T03:09:53.727Z,15.50
2023-01-29T03:12:34.982Z,14.32
2023-01-29T03:15:30.213Z,15.88
2023-01-29T03:18:20.510Z,17.58
2023-01-29T03:20:57.399Z,15.57
2023-01-29T03:23:50.166Z,16.13
2023-01-29T03:26:43.414Z,14.50
2023-01-29T03:29:35.341Z,15.00
2023-01-29T03:32:07.375Z,14.65
2023-01-29T03:34:57.778Z,14.15
2023-01-29T03:37:38.726Z,13.73
2023-01-29T03:40:24.500Z,15.93
2023-01-29T03:43:05.955Z,18.67
2023-01-29T03:45:38.836Z,17.02
2023-01-29T03:48:29.101Z,17.35
2023-01-29T03:51:09.175Z,16.30
2023-01-29T03:53:50.310Z,19.33
2023-01-29T03:56:52.731Z,19.73
2023-01-29T03:59:42.463Z,15.30
2023-01-29T04:02:13.704Z,14.30
2023-01-29T04:04:45.186Z,19.40
2023-01-29T04:07:25.542Z,18.67
2023-01-29T04:10:05.460Z,17.05
2023-01-29T04:12:41.836Z,16.80
2023-01-29T04:15:17.516Z,19.63
2023-01-29T04:17:50.661Z,15.53
2023-01-29T04:20:17.879Z,21.02
2023-01-29T04:22:57.135Z,18.42
2023-01-29T04:25:35.825Z,17.45
2023-01-29T04:28:36.841Z,12.32
2023-01-29T04:31:13.426Z,13.47
2023-01-29T04:34:20.550Z,19.38
2023-01-29T04:37:16.595Z,14.10
2023-01-29T04:40:06.899Z,16.65
2023-01-29T04:42:44.377Z,18.58
2023-01-29T04:45:20.547Z,18.30
2023-01-29T04:48:11.485Z,19.88
2023-01-29T04:51:02.481Z,18.17
2023-01-29T04:54:10.958Z,17.88
2023-01-29T04:57:12.259Z,15.88
2023-01-29T05:00:08.675Z,15.40
2023-01-29T05:02:39.288Z,17.48
2023-01-29T05:05:10.925Z,17.90
2023-01-29T05:07:41.657Z,17.20
2023-01-29T05:10:13.828Z,20.23
2023-01-29T05:12:51.110Z,16.27
2023-01-29T05:15:45.558Z,23.00
2023-01-29T05:18:18.406Z,17.05
2023-01-29T05:20:48.411Z,15.43
2023-01-29T05:23:30.484Z,18.90
2023-01-29T05:26:03.100Z,17.30
2023-01-29T05:28:29.548Z,18.77
2023-01-29T05:30:56.966Z,18.77
2023-01-29T05:33:31.525Z,17.52
2023-01-29T05:36:00.717Z,17.17
2023-01-29T05:38:36.025Z,19.87
2023-01-29T05:41:02.421Z,18.13
2023-01-29T05:43:31.126Z,18.83
2023-01-29T05:46:00.773Z,18.17
2023-01-29T05:48:40.062Z,16.77
2023-01-29T05:51:06.574Z,17.40
2023-01-29T05:53:33.990Z,18.38
2023-01-29T05:56:09.377Z,14.00
2023-01-29T05:58:36.805Z,14.65
2023-01-29T06:01:23.354Z,15.43
2023-01-29T06:03:49.793Z,17.77
2023-01-29T06:06:16.831Z,18.48
2023-01-29T06:08:59.757Z,15.38
2023-01-29T06:11:28.847Z,16.15
2023-01-29T06:13:55.215Z,21.15
2023-01-29T06:16:21.629Z,14.50
2023-01-29T06:21:31.994Z,17.70
2023-01-29T06:24:01.220Z,18.73
2023-01-29T06:26:27.675Z,19.27
2023-01-29T06:28:56.909Z,15.77
2023-01-29T06:31:38.218Z,15.10
2023-01-29T06:34:08.584Z,16.67
2023-01-29T06:36:38.176Z,16.20
2023-01-29T06:39:04.689Z,16.77
2023-01-29T06:41:31.081Z,20.07
2023-01-29T06:43:57.437Z,13.20
2023-01-29T06:46:26.247Z,14.48
2023-01-29T06:48:59.278Z,13.75
2023-01-29T06:51:31.864Z,16.48
2023-01-29T06:53:58.283Z,16.10
2023-01-29T06:56:24.776Z,15.13
2023-01-29T06:58:55.844Z,13.95
2023-01-29T07:01:35.031Z,16.77
2023-01-29T07:04:05.500Z,14.27
2023-01-29T07:06:35.043Z,13.67
2023-01-29T07:09:05.262Z,14.50
2023-01-29T07:11:32.221Z,14.63
2023-01-29T07:14:03.622Z,14.23
2023-01-29T07:16:32.987Z,14.73
2023-01-29T07:18:59.425Z,14.60
2023-01-29T07:21:36.494Z,14.48
2023-01-29T07:24:04.183Z,14.75
2023-01-29T07:26:30.548Z,15.85
2023-01-29T07:28:59.763Z,13.43
2023-01-29T07:31:27.821Z,12.57
2023-01-29T07:33:54.605Z,14.90
2023-01-29T07:36:24.297Z,18.95
2023-01-29T07:38:52.400Z,17.45
2023-01-29T07:41:24.845Z,14.13
2023-01-29T07:43:51.249Z,12.23
2023-01-29T07:49:03.891Z,16.33
2023-01-29T07:51:30.292Z,16.25
2023-01-29T07:53:56.690Z,15.23
2023-01-29T07:56:28.584Z,14.30
2023-01-29T07:58:54.982Z,14.32
2023-01-29T08:01:24.627Z,19.48
2023-01-29T08:03:57.067Z,13.88
2023-01-29T08:06:23.464Z,16.23
2023-01-29T08:08:53.812Z,12.93
2023-01-29T08:11:23.569Z,16.08
2023-01-29T08:13:55.009Z,18.00
2023-01-29T08:16:24.423Z,11.98
2023-01-29T08:18:50.891Z,11.98
2023-01-29T08:21:25.664Z,12.13
2023-01-29T08:23:51.980Z,12.73
2023-01-29T08:26:23.770Z,13.38
2023-01-29T08:28:53.488Z,14.55
2023-01-29T08:31:24.534Z,12.85
2023-01-29T08:33:55.259Z,11.23
2023-01-29T08:36:29.109Z,12.95
2023-01-29T08:38:58.316Z,18.05
2023-01-29T08:41:24.789Z,17.25
2023-01-29T08:44:02.210Z,13.88
2023-01-29T08:46:31.661Z,12.27
2023-01-29T08:49:05.805Z,10.63
2023-01-29T08:54:18.191Z,13.65
2023-01-29T08:56:47.530Z,14.38
2023-01-29T08:59:13.992Z,11.80
2023-01-29T09:01:43.548Z,14.25
2023-01-29T09:04:13.016Z,12.25
2023-01-29T09:06:39.852Z,10.93
2023-01-29T09:09:14.549Z,12.38
2023-01-29T09:11:41.012Z,15.57
2023-01-29T09:14:16.166Z,12.68
2023-01-29T09:16:43.148Z,11.52
2023-01-29T09:19:13.001Z,13.18
2023-01-29T09:21:42.116Z,11.25
2023-01-29T09:24:08.611Z,12.77
2023-01-29T09:26:43.637Z,16.13
2023-01-29T09:29:10.754Z,11.77
2023-01-29T09:31:40.496Z,13.02
2023-01-29T09:34:10.151Z,13.98
2023-01-29T09:36:39.552Z,13.83
2023-01-29T09:39:05.996Z,11.07
2023-01-29T09:42:23.502Z,13.48
2023-01-29T09:45:15.933Z,10.15
2023-01-29T09:47:47.637Z,13.90
2023-01-29T09:50:45.717Z,9.83
2023-01-29T09:53:21.575Z,12.43
2023-01-29T09:56:20.441Z,11.43
2023-01-29T09:58:47.417Z,12.25
2023-01-29T10:05:07.242Z,10.77
2023-01-29T10:08:11.277Z,14.98
2023-01-29T10:10:50.984Z,11.05
2023-01-29T10:13:37.130Z,14.02
2023-01-29T10:16:12.621Z,15.77
2023-01-29T10:18:57.149Z,12.27
2023-01-29T10:21:49.699Z,10.55
2023-01-29T10:24:38.469Z,13.57
2023-01-29T10:27:19.054Z,13.98
2023-01-29T10:29:49.158Z,12.98
2023-01-29T10:32:23.437Z,16.70
2023-01-29T10:35:18.125Z,11.15
2023-01-29T10:37:52.503Z,14.25
2023-01-29T10:40:40.121Z,12.30
2023-01-29T10:43:39.761Z,12.10
2023-01-29T10:46:41.677Z,12.20
2023-01-29T10:49:35.251Z,13.25
2023-01-29T10:52:11.375Z,12.30
2023-01-29T10:54:55.865Z,19.88
2023-01-29T10:58:01.737Z,13.23
2023-01-29T11:00:51.571Z,16.67
2023-01-29T11:03:32.326Z,18.20
2023-01-29T11:06:20.225Z,12.38
2023-01-29T11:09:25.473Z,16.10
2023-01-29T11:12:09.473Z,13.65
2023-01-29T11:14:54.560Z,16.27
2023-01-29T11:17:27.197Z,16.98
2023-01-29T11:19:58.066Z,15.65
2023-01-29T11:22:28.705Z,12.35
2023-01-29T11:25:16.150Z,18.50
2023-01-29T11:27:52.341Z,16.43
2023-01-29T11:30:39.277Z,15.15
2023-01-29T11:33:17.736Z,15.40
2023-01-29T11:41:22.469Z,18.57
2023-01-29T11:43:48.847Z,15.73
2023-01-29T11:46:16.987Z,18.90
2023-01-29T11:49:05.810Z,27.33
2023-01-29T11:51:40.873Z,16.13
2023-01-29T11:54:21.509Z,23.20
2023-01-29T11:56:51.662Z,21.00
2023-01-29T11:59:45.390Z,18.08
2023-01-29T12:02:45.963Z,18.67
2023-01-29T12:05:23.758Z,18.92
2023-01-29T12:07:56.405Z,17.17
2023-01-29T12:10:39.582Z,16.77
2023-01-29T12:13:31.949Z,22.95
2023-01-29T12:16:40.471Z,17.20
2023-01-29T12:19:41.206Z,20.33
2023-01-29T12:22:17.739Z,19.60
2023-01-29T12:25:09.167Z,20.02
2023-01-29T12:28:09.474Z,20.38
2023-01-29T12:31:10.247Z,19.88
2023-01-29T12:33:55.756Z,19.50
2023-01-29T12:39:42.581Z,23.90
2023-01-29T12:42:17.732Z,20.63
2023-01-29T12:45:01.047Z,20.02
2023-01-29T12:48:02.157Z,22.27
2023-01-29T12:50:33.955Z,20.03
2023-01-29T12:53:03.348Z,17.98
2023-01-29T12:56:05.051Z,19.52
2023-01-29T12:58:38.633Z,20.83
2023-01-29T13:01:15.324Z,17.38
2023-01-29T13:07:02.785Z,22.05
2023-01-29T13:09:33.237Z,23.10
2023-01-29T13:12:05.529Z,19.30
2023-01-29T13:15:01.117Z,21.90
2023-01-29T13:17:40.300Z,23.63
2023-01-29T13:20:35.588Z,18.65
2023-01-29T13:23:16.537Z,20.17
2023-01-29T13:25:43.439Z,21.63
2023-01-29T13:28:22.375Z,22.33
2023-01-29T13:31:26.105Z,20.57
2023-01-29T13:34:17.105Z,18.77
2023-01-29T13:36:48.954Z,22.98
2023-01-29T13:39:29.699Z,18.65
2023-01-29T13:42:00.764Z,23.40
2023-01-29T13:44:34.548Z,24.10
2023-01-29T13:47:10.482Z,18.30
2023-01-29T13:49:45.706Z,17.63
2023-01-29T13:52:25.647Z,21.02
2023-01-29T13:55:00.215Z,18.85
2023-01-29T13:57:45.014Z,19.37
2023-01-29T14:00:33.039Z,21.00
2023-01-29T14:03:05.577Z,18.80
2023-01-29T14:05:41.681Z,18.48
2023-01-29T14:08:30.440Z,17.55
2023-01-29T14:11:35.175Z,18.23
2023-01-29T14:14:04.181Z,17.13
2023-01-29T14:16:38.221Z,17.98
2023-01-29T14:19:18.221Z,16.65
2023-01-29T14:21:50.143Z,18.45
2023-01-29T14:24:18.793Z,18.80
2023-01-29T14:26:54.093Z,17.50
2023-01-29T14:29:34.843Z,18.42
2023-01-29T14:32:09.862Z,16.65
2023-01-29T14:34:51.424Z,17.75
2023-01-29T14:37:30.957Z,17.10
2023-01-29T14:40:25.144Z,17.85
2023-01-29T14:43:01.472Z,18.13
2023-01-29T14:45:27.850Z,16.05
2023-01-29T14:48:02.625Z,17.98
2023-01-29T14:50:28.934Z,14.53
2023-01-29T14:53:19.863Z,17.75
2023-01-29T14:56:10.545Z,16.67
2023-01-29T14:58:45.713Z,18.13
2023-01-29T15:01:37.834Z,20.40
2023-01-29T15:04:24.570Z,17.63
2023-01-29T15:07:06.013Z,14.45
2023-01-29T15:09:42.345Z,15.57
2023-01-29T15:12:20.927Z,16.20
2023-01-29T15:15:13.877Z,18.25
2023-01-29T15:18:19.929Z,17.30
2023-01-29T15:20:46.761Z,15.82
2023-01-29T15:23:33.761Z,15.68
2023-01-29T15:26:05.204Z,14.48
2023-01-29T15:28:36.155Z,15.15
2023-01-29T15:31:22.461Z,15.93
2023-01-29T15:33:54.949Z,15.32
2023-01-29T15:36:31.753Z,20.33
2023-01-29T15:39:13.096Z,17.35
2023-01-29T15:41:39.678Z,15.60
2023-01-29T15:44:35.360Z,19.47
2023-01-29T15:47:02.298Z,16.38
2023-01-29T15:49:39.668Z,16.75
2023-01-29T15:52:15.363Z,16.95
2023-01-29T15:54:41.998Z,14.13
2023-01-29T15:57:21.185Z,17.60
2023-01-29T15:59:54.170Z,17.75
2023-01-29T16:02:41.250Z,19.30
2023-01-29T16:07:56.175Z,14.90
2023-01-29T16:10:32.258Z,14.43
2023-01-29T16:13:05.709Z,17.35
2023-01-29T16:15:53.290Z,19.67
2023-01-29T16:18:36.855Z,12.40
2023-01-29T16:21:15.745Z,17.35
2023-01-29T16:23:47.927Z,17.13
2023-01-29T16:26:52.361Z,19.63
2023-01-29T16:29:24.779Z,16.95
2023-01-29T16:32:02.650Z,15.88
2023-01-29T16:34:32.819Z,12.88
2023-01-29T16:37:05.283Z,16.73
2023-01-29T16:39:40.789Z,14.18
2023-01-29T16:42:10.597Z,12.80
2023-01-29T16:44:52.739Z,15.98
2023-01-29T16:48:10.759Z,16.88
2023-01-29T16:50:53.992Z,15.83
2023-01-29T16:53:26.175Z,19.27
2023-01-29T16:58:52.064Z,17.98
2023-01-29T17:01:19.593Z,16.35
2023-01-29T17:04:10.991Z,16.77
2023-01-29T17:06:44.811Z,15.38
2023-01-29T17:09:38.089Z,22.70
2023-01-29T17:12:24.552Z,19.35
2023-01-29T17:15:07.243Z,23.00
2023-01-29T17:17:37.064Z,20.80
2023-01-29T17:20:16.955Z,20.23
2023-01-29T17:22:45.027Z,21.33
2023-01-29T17:25:14.797Z,17.48
2023-01-29T17:27:53.026Z,19.08
2023-01-29T17:30:21.916Z,22.17
2023-01-29T17:32:51.204Z,19.27
2023-01-29T17:35:21.044Z,20.80
2023-01-29T17:37:53.546Z,20.10
2023-01-29T17:40:33.860Z,19.70
2023-01-29T17:43:03.006Z,24.93
2023-01-29T17:45:29.644Z,21.08
2023-01-29T17:47:59.230Z,22.15
2023-01-29T17:50:28.462Z,25.50
2023-01-29T17:52:54.844Z,18.17
2023-01-29T17:55:30.523Z,22.47
2023-01-29T17:58:03.322Z,21.38
2023-01-29T18:00:32.591Z,23.25
2023-01-29T18:03:02.298Z,23.08
2023-01-29T18:05:29.855Z,24.52
2023-01-29T18:08:02.787Z,18.30
2023-01-29T18:10:32.151Z,26.00
2023-01-29T18:12:58.717Z,19.52
2023-01-29T18:15:25.444Z,23.35
2023-01-29T18:17:56.283Z,20.00
2023-01-29T18:20:25.621Z,22.27
2023-01-29T18:22:52.953Z,24.70
2023-01-29T18:25:20.863Z,17.15
2023-01-29T18:27:51.292Z,23.08
2023-01-29T18:30:22.756Z,26.30
2023-01-29T18:32:50.252Z,20.37
2023-01-29T18:35:25.277Z,23.70
2023-01-29T18:37:52.013Z,25.27
2023-01-29T18:40:18.737Z,23.08
2023-01-29T18:42:48.341Z,26.05
2023-01-29T18:45:18.697Z,21.80
2023-01-29T18:47:52.661Z,28.02
2023-01-29T18:50:19.741Z,27.85
2023-01-29T18:52:48.953Z,21.80
2023-01-29T18:55:22.516Z,24.48
2023-01-29T18:58:27.779Z,25.80
2023-01-29T19:00:39.724Z,24.73
2023-01-29T19:03:06.192Z,20.65
2023-01-29T19:05:33.954Z,18.02
2023-01-29T19:08:04.083Z,23.23
2023-01-29T19:10:30.533Z,15.73
2023-01-29T19:12:56.943Z,25.35
2023-01-29T19:15:27.809Z,20.70
2023-01-29T19:17:54.725Z,19.42
2023-01-29T19:20:21.232Z,19.63
2023-01-29T19:22:56.783Z,19.83
2023-01-29T19:25:23.546Z,24.23
2023-01-29T19:27:59.541Z,19.95
2023-01-29T19:30:25.985Z,18.85
2023-01-29T19:33:02.051Z,18.98
2023-01-29T19:35:28.863Z,24.40
2023-01-29T19:38:04.157Z,24.30
2023-01-29T19:40:30.610Z,20.70
2023-01-29T19:43:00.241Z,25.85
2023-01-29T19:45:49.945Z,24.55
2023-01-29T19:48:26.300Z,19.63
2023-01-29T19:50:54.959Z,21.40
2023-01-29T19:53:23.687Z,20.30
2023-01-29T19:56:08.704Z,21.13
2023-01-29T19:58:38.054Z,21.27
2023-01-29T20:01:20.543Z,26.37
2023-01-29T20:03:53.045Z,20.02
2023-01-29T20:06:25.073Z,23.40
2023-01-29T20:09:06.222Z,21.35
2023-01-29T20:11:35.142Z,20.67
2023-01-29T20:14:03.985Z,18.90
2023-01-29T20:16:30.563Z,21.00
2023-01-29T20:19:13.447Z,18.98
2023-01-29T20:21:45.439Z,23.85
2023-01-29T20:24:14.580Z,19.48
2023-01-29T20:26:44.205Z,20.40
2023-01-29T20:29:13.596Z,19.75
2023-01-29T20:31:40.177Z,26.52
2023-01-29T20:34:09.411Z,26.23
2023-01-29T20:36:39.015Z,19.20
2023-01-29T20:39:13.057Z,21.73
2023-01-29T20:41:42.205Z,19.80
2023-01-29T20:44:16.311Z,22.58
2023-01-29T20:46:46.705Z,21.30
2023-01-29T20:49:19.306Z,25.55
2023-01-29T20:51:48.552Z,25.30
2023-01-29T20:54:22.698Z,24.48
2023-01-29T20:56:49.294Z,28.42
2023-01-29T20:59:16.303Z,24.10
2023-01-29T21:01:47.181Z,27.83
2023-01-29T21:04:13.660Z,25.83
2023-01-29T21:06:40.052Z,23.98
2023-01-29T21:09:10.781Z,21.42
2023-01-29T21:11:39.956Z,21.33
2023-01-29T21:14:10.167Z,24.63
2023-01-29T21:16:39.335Z,19.00
2023-01-29T21:19:06.411Z,25.65
2023-01-29T21:21:38.590Z,20.05
2023-01-29T21:24:05.383Z,21.90
2023-01-29T21:26:32.370Z,23.67
2023-01-29T21:29:06.019Z,22.73
2023-01-29T21:31:33.559Z,21.85
2023-01-29T21:34:08.511Z,24.60
2023-01-29T21:36:36.072Z,21.85
2023-01-29T21:39:16.448Z,27.05
2023-01-29T21:42:03.120Z,27.47
2023-01-29T21:44:36.708Z,22.95
2023-01-29T21:47:12.323Z,24.65
2023-01-29T21:49:43.374Z,22.80
2023-01-29T21:52:14.911Z,20.92
2023-01-29T21:54:41.666Z,22.63
2023-01-29T21:57:31.605Z,19.38
2023-01-29T22:00:04.813Z,23.63
2023-01-29T22:02:39.331Z,26.02
2023-01-29T22:05:18.607Z,24.08
2023-01-29T22:07:52.044Z,27.93
2023-01-29T22:10:30.598Z,24.75
2023-01-29T22:13:06.413Z,20.63
2023-01-29T22:15:32.812Z,22.08
2023-01-29T22:17:59.328Z,20.98
2023-01-29T22:20:30.566Z,23.30
2023-01-29T22:22:59.323Z,24.95
2023-01-29T22:28:23.496Z,26.60
2023-01-29T22:30:57.313Z,22.52
2023-01-29T22:33:23.838Z,21.13
2023-01-29T22:35:59.898Z,23.13
2023-01-29T22:38:26.354Z,22.95
2023-01-29T22:40:56.302Z,25.35
2023-01-29T22:43:29.197Z,20.92
2023-01-29T22:46:03.959Z,22.80
2023-01-29T22:48:33.382Z,27.40
2023-01-29T22:51:11.913Z,26.17
2023-01-29T22:56:31.927Z,23.70
2023-01-29T22:59:00.362Z,25.57
2023-01-29T23:01:33.657Z,20.63
2023-01-29T23:04:00.009Z,20.58
2023-01-29T23:06:26.494Z,22.25
2023-01-29T23:08:55.874Z,24.30
2023-01-29T23:11:25.147Z,20.53
2023-01-29T23:13:55.583Z,25.50
2023-01-29T23:16:28.338Z,23.02
2023-01-29T23:18:57.956Z,23.08
2023-01-29T23:21:33.280Z,22.38
2023-01-29T23:24:11.876Z,21.97
2023-01-29T23:26:57.067Z,22.20
2023-01-29T23:29:27.896Z,19.33
2023-01-29T23:31:57.096Z,21.00
2023-01-29T23:37:08.816Z,24.97
2023-01-29T23:39:35.202Z,20.52
2023-01-29T23:42:02.135Z,16.90
2023-01-29T23:44:29.042Z,18.10
2023-01-29T23:46:59.050Z,17.38
2023-01-29T23:49:25.921Z,18.87
2023-01-29T23:51:52.866Z,20.85
2023-01-29T23:54:28.527Z,14.13
2023-01-29T23:56:54.953Z,18.75
2023-01-29T23:59:29.209Z,16.02
